TAF KBDL
AMD KBDL 082112Z 0821/0924 36008KT 4SM -SHSN OVC025 FM090000 36004KT 2SM -SN BR OVC015 FM090500 32005KT P6SM BKN060 FM091400 31010KT P6SM SCT060=
METAR KBDL
KBDL 082151Z 36007KT 5SM -RASN OVC028 01/M03 A2991 RMK AO2 RAB18 SLP130 P0000 T00061033 ?
KBDL 082051Z 36008KT 9SM -SN SCT034 BKN042 OVC050 02/M06 A2990 RMK AO2 SNB45 SLP127 PCPN VRY LGT P0000 60000 T00171056 56026 ?
SPECI KBDL 082046Z 35007KT 10SM -SN BKN034 BKN046 OVC055 02/M06 A2991 RMK AO2 SNB45 PCPN VRY LGT P0000 ?
KBDL 081951Z 36005KT 10SM BKN033 OVC041 02/M06 A2992 RMK AO2 SLP133 T00171056 ?
KBDL 081851Z 01007KT 10SM OVC030 02/M06 A2996 RMK AO2 SLP146 T00171061 ?
WC KBDL
WS KBDL
WV KBDL